createdAt,value
2022-10-07T00:01:13.981Z,10.41
2022-10-07T00:06:35.525Z,10.40
2022-10-07T00:11:57.128Z,10.34
2022-10-07T00:17:18.757Z,10.28
2022-10-07T00:22:40.018Z,10.29
2022-10-07T00:28:01.492Z,10.24
2022-10-07T00:33:22.910Z,10.15
2022-10-07T00:38:56.350Z,10.13
2022-10-07T00:44:33.457Z,10.05
2022-10-07T00:50:24.657Z,10.00
2022-10-07T00:55:46.347Z,9.95
2022-10-07T01:01:08.547Z,9.87
2022-10-07T01:06:30.483Z,9.84
2022-10-07T01:11:54.858Z,9.77
2022-10-07T01:17:46.408Z,9.73
2022-10-07T01:23:30.196Z,9.74
2022-10-07T01:29:01.260Z,9.81
2022-10-07T01:34:24.824Z,9.86
2022-10-07T01:39:53.004Z,9.78
2022-10-07T01:45:21.429Z,9.74
2022-10-07T01:50:43.661Z,9.64
2022-10-07T01:56:21.450Z,9.61
2022-10-07T02:02:06.978Z,9.54
2022-10-07T02:08:07.711Z,9.49
2022-10-07T02:13:56.238Z,9.42
2022-10-07T02:19:45.150Z,9.36
2022-10-07T02:25:07.014Z,9.29
2022-10-07T02:30:29.041Z,9.24
2022-10-07T02:36:08.069Z,9.18
2022-10-07T02:41:44.868Z,9.13
2022-10-07T02:47:23.484Z,9.15
2022-10-07T02:52:46.074Z,9.23
2022-10-07T02:58:12.800Z,9.31
2022-10-07T03:03:34.183Z,9.28
2022-10-07T03:09:00.587Z,9.19
2022-10-07T03:14:24.877Z,9.06
2022-10-07T03:19:46.858Z,9.02
2022-10-07T03:25:08.995Z,8.97
2022-10-07T03:30:31.338Z,8.91
2022-10-07T03:35:54.032Z,8.89
2022-10-07T03:41:16.220Z,8.86
2022-10-07T03:46:38.994Z,8.80
2022-10-07T03:52:00.734Z,8.73
2022-10-07T03:57:40.527Z,8.77
2022-10-07T04:03:03.619Z,8.79
2022-10-07T04:08:28.234Z,8.93
2022-10-07T04:13:51.409Z,9.28
2022-10-07T04:19:14.361Z,9.57
2022-10-07T04:24:37.292Z,9.70
2022-10-07T04:29:59.207Z,9.75
2022-10-07T04:35:22.882Z,9.73
2022-10-07T04:40:48.606Z,9.77
2022-10-07T04:46:15.025Z,9.86
2022-10-07T04:51:51.812Z,9.92
2022-10-07T04:57:16.413Z,9.84
2022-10-07T05:02:39.112Z,11.92
2022-10-07T05:08:00.768Z,15.30
2022-10-07T05:13:25.271Z,17.03
2022-10-07T05:18:48.229Z,17.91
2022-10-07T05:24:10.985Z,19.02
2022-10-07T05:29:34.136Z,19.72
2022-10-07T05:34:55.876Z,20.20
2022-10-07T05:40:17.613Z,19.68
2022-10-07T05:45:39.506Z,19.30
2022-10-07T05:51:01.121Z,20.61
2022-10-07T05:56:24.548Z,21.06
2022-10-07T06:01:48.579Z,22.20
2022-10-07T06:07:19.573Z,23.54
2022-10-07T06:13:00.915Z,22.71
2022-10-07T06:18:22.789Z,23.17
2022-10-07T06:23:49.501Z,23.68
2022-10-07T06:29:11.096Z,23.68
2022-10-07T06:34:32.677Z,24.15
2022-10-07T06:39:58.678Z,24.57
2022-10-07T06:45:21.998Z,24.35
2022-10-07T06:50:54.698Z,24.39
2022-10-07T06:56:18.102Z,24.97
2022-10-07T07:01:39.704Z,25.18
2022-10-07T07:07:02.372Z,25.34
